createdAt,value
2018-09-24T00:00:15.353Z,69.73
2018-09-24T00:02:45.315Z,70.76
2018-09-24T00:05:15.205Z,70.72
2018-09-24T00:07:45.050Z,71.17
2018-09-24T00:10:14.881Z,70.11
2018-09-24T00:12:44.697Z,70.66
2018-09-24T00:15:14.550Z,70.58
2018-09-24T00:17:44.353Z,70.23
2018-09-24T00:20:14.697Z,70.00
2018-09-24T00:22:44.489Z,69.54
2018-09-24T00:25:14.303Z,69.50
2018-09-24T00:27:44.107Z,69.37
2018-09-24T00:30:14.241Z,69.11
2018-09-24T00:32:44.053Z,68.81
2018-09-24T00:35:13.875Z,69.62
2018-09-24T00:37:43.606Z,70.66
2018-09-24T00:40:13.573Z,70.65
2018-09-24T00:42:43.777Z,69.96
2018-09-24T00:45:13.659Z,69.86
2018-09-24T00:47:43.510Z,71.33
2018-09-24T00:50:13.370Z,70.86
2018-09-24T00:52:43.139Z,71.31
2018-09-24T00:55:12.921Z,72.02
2018-09-24T00:57:42.691Z,72.20
2018-09-24T01:00:12.559Z,72.10
2018-09-24T01:02:42.347Z,72.70
2018-09-24T01:05:12.243Z,74.02
2018-09-24T01:07:41.992Z,74.47
2018-09-24T01:10:11.749Z,73.70
2018-09-24T01:12:41.543Z,73.63
2018-09-24T01:15:11.311Z,73.40
2018-09-24T01:17:41.151Z,72.91
2018-09-24T01:20:11.585Z,73.38
2018-09-24T01:22:41.925Z,72.85
2018-09-24T01:25:11.728Z,73.38
2018-09-24T01:27:41.759Z,73.46
2018-09-24T01:30:11.534Z,73.31
2018-09-24T01:32:41.376Z,74.57
2018-09-24T01:35:11.182Z,74.88
2018-09-24T01:37:40.961Z,75.41
2018-09-24T01:40:10.829Z,76.03
2018-09-24T01:42:40.571Z,74.94
2018-09-24T01:45:10.348Z,75.35
2018-09-24T01:47:40.182Z,76.04
2018-09-24T01:50:10.056Z,75.86
2018-09-24T01:52:39.965Z,75.82
2018-09-24T01:55:09.715Z,75.76
2018-09-24T01:57:39.457Z,75.31
2018-09-24T02:00:09.280Z,76.55
2018-09-24T02:02:39.062Z,77.91
2018-09-24T02:05:15.900Z,78.77
2018-09-24T02:07:45.716Z,79.34
2018-09-24T02:10:16.498Z,80.00
2018-09-24T02:12:46.266Z,80.15
2018-09-24T02:15:16.100Z,80.11
2018-09-24T02:17:45.905Z,80.92
2018-09-24T02:20:15.685Z,80.78
2018-09-24T02:22:45.475Z,80.39
2018-09-24T02:25:15.366Z,79.63
2018-09-24T02:27:45.178Z,78.92
2018-09-24T02:30:16.949Z,78.96
2018-09-24T02:32:46.798Z,77.23
2018-09-24T02:35:16.926Z,76.11
2018-09-24T02:37:46.682Z,76.64
2018-09-24T02:40:22.806Z,76.46
2018-09-24T02:42:52.632Z,75.84
2018-09-24T02:45:22.394Z,77.19
2018-09-24T02:47:52.966Z,77.32
2018-09-24T02:50:28.097Z,77.19
2018-09-24T02:52:57.858Z,77.28
2018-09-24T02:55:27.587Z,77.71
2018-09-24T02:57:57.334Z,77.48
2018-09-24T03:00:27.288Z,78.11
2018-09-24T03:02:57.062Z,77.95
2018-09-24T03:05:26.818Z,77.81
2018-09-24T03:07:56.591Z,77.96
2018-09-24T03:10:26.380Z,77.89
2018-09-24T03:12:56.330Z,77.94
2018-09-24T03:15:26.266Z,78.12
2018-09-24T03:17:56.029Z,77.95
2018-09-24T03:20:25.790Z,78.06
2018-09-24T03:22:55.582Z,77.88
2018-09-24T03:25:25.341Z,77.93
2018-09-24T03:27:55.577Z,77.95
2018-09-24T03:30:25.506Z,77.78
2018-09-24T03:32:55.290Z,77.53
2018-09-24T03:35:25.133Z,77.34
2018-09-24T03:37:55.226Z,77.85
2018-09-24T03:40:25.073Z,78.30
2018-09-24T03:42:55.734Z,78.89
2018-09-24T03:45:25.902Z,79.21
2018-09-24T03:47:55.780Z,79.08
2018-09-24T03:50:25.542Z,79.15
2018-09-24T03:52:55.341Z,79.58
2018-09-24T03:55:25.294Z,79.70
2018-09-24T03:57:55.056Z,79.70
2018-09-24T04:00:24.958Z,79.76
2018-09-24T04:02:54.736Z,79.01
2018-09-24T04:05:29.728Z,79.56
2018-09-24T04:08:04.592Z,79.06
2018-09-24T04:10:39.475Z,79.37
2018-09-24T04:13:14.584Z,79.86
2018-09-24T04:15:49.514Z,79.87
2018-09-24T04:18:24.618Z,81.04
2018-09-24T04:20:59.540Z,80.43
2018-09-24T04:23:34.913Z,80.58
2018-09-24T04:26:09.818Z,77.97
2018-09-24T04:28:44.752Z,78.37
2018-09-24T04:31:19.714Z,76.69
2018-09-24T04:33:54.447Z,76.56
2018-09-24T04:36:29.646Z,75.82
2018-09-24T04:39:04.940Z,76.66
2018-09-24T04:41:39.897Z,76.33
2018-09-24T04:44:14.982Z,76.66
2018-09-24T04:46:49.830Z,77.34
2018-09-24T04:49:24.803Z,77.72
2018-09-24T04:51:59.751Z,76.70
2018-09-24T04:55:22.208Z,76.89
2018-09-24T04:57:57.248Z,77.07
2018-09-24T05:00:32.016Z,76.23
2018-09-24T05:03:06.883Z,75.29
2018-09-24T05:05:41.749Z,75.54
2018-09-24T05:08:16.516Z,75.96
2018-09-24T05:10:52.741Z,75.60
2018-09-24T05:13:27.717Z,75.77
2018-09-24T05:16:02.582Z,75.98
2018-09-24T05:18:37.687Z,76.39
2018-09-24T05:21:12.723Z,77.03
2018-09-24T05:23:47.791Z,77.36
2018-09-24T05:26:22.887Z,77.36
2018-09-24T05:28:57.808Z,77.18
2018-09-24T05:31:32.676Z,77.66
2018-09-24T05:34:07.563Z,77.68
2018-09-24T05:36:42.517Z,77.90
2018-09-24T05:39:17.925Z,77.61
2018-09-24T05:41:52.773Z,77.88
2018-09-24T05:44:27.615Z,77.97
2018-09-24T05:47:02.417Z,78.11
2018-09-24T05:49:37.679Z,78.80
2018-09-24T05:52:13.214Z,78.94
2018-09-24T05:54:48.319Z,76.25
2018-09-24T05:57:23.403Z,76.97
2018-09-24T05:59:58.313Z,75.36
2018-09-24T06:02:33.455Z,75.92
2018-09-24T06:05:08.577Z,75.60
2018-09-24T06:07:43.425Z,75.35
2018-09-24T06:10:18.311Z,74.60
2018-09-24T06:12:53.120Z,75.58
2018-09-24T06:15:28.169Z,75.82
2018-09-24T06:18:03.210Z,75.56
2018-09-24T06:20:38.257Z,74.86
2018-09-24T06:23:13.137Z,74.67
2018-09-24T06:25:47.967Z,73.90
2018-09-24T06:28:22.971Z,74.61
2018-09-24T06:30:58.200Z,74.02
2018-09-24T06:33:33.024Z,73.18
2018-09-24T06:36:07.892Z,72.46
2018-09-24T06:38:42.743Z,72.53
2018-09-24T06:41:17.818Z,71.84
2018-09-24T06:43:52.965Z,72.11
2018-09-24T06:46:27.989Z,72.57
2018-09-24T06:49:03.046Z,71.78
2018-09-24T06:51:37.890Z,70.98
2018-09-24T06:54:12.811Z,71.06
2018-09-24T06:56:47.753Z,68.68
2018-09-24T06:59:22.682Z,69.66
2018-09-24T07:01:57.672Z,70.71
2018-09-24T07:04:32.584Z,69.33
2018-09-24T07:07:07.342Z,69.67
2018-09-24T07:09:42.508Z,70.04
2018-09-24T07:12:17.535Z,69.66
2018-09-24T07:14:52.436Z,70.49
2018-09-24T07:17:27.520Z,71.06
2018-09-24T07:20:02.494Z,71.02
2018-09-24T07:22:37.434Z,71.15
2018-09-24T07:25:12.368Z,70.81
2018-09-24T07:27:47.436Z,71.37
2018-09-24T07:30:22.420Z,71.78
2018-09-24T07:32:57.343Z,72.10
2018-09-24T07:35:32.466Z,71.57
2018-09-24T07:38:07.467Z,69.22
2018-09-24T07:40:42.261Z,69.69
2018-09-24T07:43:17.126Z,69.43
2018-09-24T07:45:52.173Z,70.03
2018-09-24T07:48:27.256Z,69.77
2018-09-24T07:51:02.087Z,69.59
2018-09-24T07:53:36.942Z,70.47
2018-09-24T07:56:11.723Z,70.03
2018-09-24T07:58:46.598Z,70.44
2018-09-24T08:01:21.586Z,70.58
2018-09-24T08:03:56.455Z,70.18
2018-09-24T08:06:31.336Z,70.69
2018-09-24T08:09:06.244Z,71.13
2018-09-24T08:11:41.327Z,70.73
2018-09-24T08:14:16.105Z,69.54
2018-09-24T08:16:51.056Z,69.07
2018-09-24T08:19:25.864Z,70.35
2018-09-24T08:22:00.792Z,69.69
2018-09-24T08:24:35.631Z,70.69
2018-09-24T08:27:10.688Z,70.21
2018-09-24T08:29:45.610Z,70.81
2018-09-24T08:32:20.481Z,71.10
2018-09-24T08:34:55.706Z,71.21
2018-09-24T08:37:30.750Z,70.41
2018-09-24T08:40:05.636Z,69.91
2018-09-24T08:42:40.572Z,69.65
2018-09-24T08:45:15.581Z,68.29
2018-09-24T08:47:50.410Z,69.00
2018-09-24T08:50:25.578Z,67.63
2018-09-24T08:53:00.412Z,68.16
2018-09-24T08:55:35.301Z,68.35
2018-09-24T08:58:10.468Z,67.46
2018-09-24T09:00:45.473Z,67.86
2018-09-24T09:03:20.586Z,66.79
2018-09-24T09:05:55.777Z,66.60
2018-09-24T09:08:30.592Z,66.60
2018-09-24T09:11:05.520Z,66.99
2018-09-24T09:13:40.453Z,66.23
2018-09-24T09:16:15.435Z,65.79
2018-09-24T09:18:50.385Z,65.86
2018-09-24T09:21:25.398Z,64.30
2018-09-24T09:24:00.230Z,64.41
2018-09-24T09:26:35.582Z,64.52
2018-09-24T09:29:10.735Z,64.36
2018-09-24T09:31:45.738Z,62.82
2018-09-24T09:34:22.853Z,63.32
2018-09-24T09:36:58.120Z,62.78
2018-09-24T09:39:33.119Z,61.80
2018-09-24T09:42:07.951Z,60.79
2018-09-24T09:44:43.219Z,61.77
2018-09-24T09:47:18.401Z,61.65
2018-09-24T09:49:53.627Z,62.79
2018-09-24T09:52:31.277Z,62.77
2018-09-24T09:55:06.151Z,62.10
2018-09-24T09:57:41.393Z,61.77
2018-09-24T10:00:16.384Z,60.11
2018-09-24T10:02:51.217Z,60.83
2018-09-24T10:05:26.357Z,61.59
2018-09-24T10:08:01.365Z,59.74
2018-09-24T10:10:36.899Z,60.57
2018-09-24T10:13:11.700Z,59.01
2018-09-24T10:15:46.558Z,59.83
2018-09-24T10:18:21.472Z,59.35
2018-09-24T10:20:56.521Z,58.85
2018-09-24T10:23:31.398Z,58.58
2018-09-24T10:26:06.194Z,59.94
2018-09-24T10:28:41.349Z,56.04
2018-09-24T10:31:16.232Z,55.42
2018-09-24T10:33:51.160Z,54.47
2018-09-24T10:36:26.341Z,54.25
2018-09-24T10:39:01.357Z,55.44
2018-09-24T10:41:36.291Z,55.38
2018-09-24T10:44:11.342Z,52.52
2018-09-24T10:46:46.171Z,54.89
2018-09-24T10:49:21.100Z,55.32
2018-09-24T10:51:56.061Z,52.75
2018-09-24T10:54:30.960Z,54.98
2018-09-24T10:57:05.983Z,54.41
2018-09-24T10:59:41.142Z,54.50
2018-09-24T11:02:16.155Z,55.21
2018-09-24T11:04:51.053Z,54.23
2018-09-24T11:07:26.271Z,54.65
2018-09-24T11:10:01.262Z,54.89
2018-09-24T11:12:36.205Z,52.86
2018-09-24T11:15:11.309Z,52.77
2018-09-24T11:17:46.343Z,52.26
2018-09-24T11:20:21.379Z,52.09
2018-09-24T11:22:56.401Z,52.56
2018-09-24T11:25:31.281Z,52.80
2018-09-24T11:28:06.351Z,53.33
2018-09-24T11:30:41.558Z,54.02
2018-09-24T11:33:16.630Z,54.96
2018-09-24T11:35:51.581Z,53.67
2018-09-24T11:38:26.611Z,54.38
2018-09-24T11:41:01.619Z,52.74
2018-09-24T11:43:36.673Z,50.14
2018-09-24T11:46:12.171Z,49.90
2018-09-24T11:48:47.124Z,49.56
2018-09-24T11:51:22.045Z,48.75
2018-09-24T11:53:57.480Z,48.37
2018-09-24T11:56:32.317Z,48.84
2018-09-24T11:59:07.109Z,49.61
2018-09-24T12:01:42.091Z,48.52
2018-09-24T12:04:17.312Z,47.83
2018-09-24T12:06:52.263Z,49.07
2018-09-24T12:09:27.139Z,48.96
2018-09-24T12:12:02.011Z,49.20
2018-09-24T12:14:36.824Z,49.36
2018-09-24T12:17:11.875Z,50.69
2018-09-24T12:19:46.953Z,50.03
2018-09-24T12:22:21.982Z,52.03
2018-09-24T12:24:57.003Z,50.93
2018-09-24T12:27:32.464Z,48.67
2018-09-24T12:30:07.352Z,49.79
2018-09-24T12:32:42.304Z,50.34
2018-09-24T12:35:17.480Z,49.13
2018-09-24T12:37:52.441Z,49.33
2018-09-24T12:40:27.561Z,48.32
2018-09-24T12:43:02.561Z,46.23
2018-09-24T12:45:37.534Z,47.52
2018-09-24T12:48:12.617Z,48.88
2018-09-24T12:50:47.636Z,49.53
2018-09-24T12:53:22.694Z,47.94
2018-09-24T12:55:58.000Z,47.99
2018-09-24T12:58:33.206Z,48.90
2018-09-24T13:01:07.990Z,48.14
2018-09-24T13:03:42.829Z,49.06
2018-09-24T13:06:17.878Z,46.99
2018-09-24T13:08:52.945Z,48.13
2018-09-24T13:11:27.734Z,46.29
2018-09-24T13:14:02.610Z,46.16
2018-09-24T13:16:37.422Z,46.56
2018-09-24T13:19:12.493Z,46.03
2018-09-24T13:21:47.484Z,45.77
2018-09-24T13:24:22.282Z,47.07
2018-09-24T13:26:57.256Z,44.64
2018-09-24T13:29:32.535Z,45.67
2018-09-24T13:32:07.464Z,44.33
2018-09-24T13:34:42.418Z,45.13
2018-09-24T13:37:17.326Z,43.55
2018-09-24T13:39:52.198Z,43.78
2018-09-24T13:42:27.122Z,46.89
2018-09-24T13:45:02.065Z,46.94
2018-09-24T13:47:37.064Z,47.71
2018-09-24T13:50:12.281Z,46.63
2018-09-24T13:52:47.080Z,46.13
2018-09-24T13:55:22.074Z,47.49
2018-09-24T13:57:56.900Z,45.04
2018-09-24T14:00:32.051Z,44.92
2018-09-24T14:03:06.871Z,46.29
2018-09-24T14:05:41.626Z,43.48
2018-09-24T14:08:26.184Z,44.51
2018-09-24T14:11:01.124Z,43.28
2018-09-24T14:13:36.406Z,43.19
2018-09-24T14:16:11.377Z,40.98
2018-09-24T14:18:46.314Z,40.43
2018-09-24T14:21:21.162Z,43.00
2018-09-24T14:23:55.845Z,41.94
2018-09-24T14:26:30.698Z,41.19
2018-09-24T14:29:05.501Z,40.73
2018-09-24T14:31:40.386Z,42.72
2018-09-24T14:34:15.267Z,43.34
2018-09-24T14:36:50.245Z,43.85
2018-09-24T14:39:25.025Z,43.64
2018-09-24T14:41:59.981Z,44.17
2018-09-24T14:44:35.095Z,43.38
2018-09-24T14:47:09.883Z,43.65
2018-09-24T14:49:44.778Z,41.01
2018-09-24T14:52:19.631Z,40.63
2018-09-24T14:54:54.538Z,41.27
2018-09-24T14:57:29.640Z,40.46
2018-09-24T15:00:04.677Z,41.84
2018-09-24T15:02:39.525Z,40.45
2018-09-24T15:05:14.465Z,41.26
2018-09-24T15:07:49.576Z,42.27
2018-09-24T15:10:24.453Z,43.38
2018-09-24T15:12:59.247Z,41.55
2018-09-24T15:15:34.175Z,41.45
2018-09-24T15:18:09.059Z,40.35
2018-09-24T15:20:44.005Z,41.08
2018-09-24T15:23:19.009Z,42.12
2018-09-24T15:25:54.085Z,41.68
2018-09-24T15:28:29.133Z,43.93
2018-09-24T15:31:04.303Z,43.98
2018-09-24T15:33:39.121Z,45.76
2018-09-24T15:36:14.147Z,46.97
2018-09-24T15:38:49.171Z,44.91
2018-09-24T15:41:24.266Z,44.62
2018-09-24T15:43:59.209Z,43.56
2018-09-24T15:46:34.342Z,42.65
2018-09-24T15:49:09.470Z,42.99
2018-09-24T15:51:44.558Z,44.20
2018-09-24T15:54:19.423Z,44.44
2018-09-24T15:56:54.362Z,43.46
2018-09-24T15:59:29.191Z,42.71
2018-09-24T16:02:04.105Z,43.51
2018-09-24T16:04:39.246Z,43.77
2018-09-24T16:07:14.168Z,44.15
2018-09-24T16:09:49.147Z,41.94
2018-09-24T16:12:24.108Z,44.87
2018-09-24T16:14:59.162Z,42.34
2018-09-24T16:17:34.179Z,44.59
2018-09-24T16:20:09.080Z,44.33
2018-09-24T16:22:43.981Z,44.38
2018-09-24T16:25:18.860Z,45.43
2018-09-24T16:27:53.864Z,45.49
2018-09-24T16:30:28.980Z,47.27
2018-09-24T16:33:03.853Z,47.41
2018-09-24T16:35:38.684Z,45.43
2018-09-24T16:38:13.687Z,44.82
2018-09-24T16:40:48.602Z,44.80
2018-09-24T16:43:23.593Z,45.81
2018-09-24T16:45:58.821Z,46.06
2018-09-24T16:48:33.668Z,45.90
2018-09-24T16:51:08.601Z,47.05
2018-09-24T16:53:43.682Z,46.45
2018-09-24T16:56:18.846Z,46.36
2018-09-24T16:58:53.903Z,47.09
2018-09-24T17:01:29.007Z,46.57
2018-09-24T17:04:03.938Z,47.01
2018-09-24T17:06:38.957Z,47.88
2018-09-24T17:09:15.911Z,47.06
2018-09-24T17:11:50.996Z,46.72
2018-09-24T17:14:26.464Z,47.59
2018-09-24T17:17:01.296Z,47.02
2018-09-24T17:19:36.596Z,47.70
2018-09-24T17:22:11.674Z,47.95
2018-09-24T17:24:46.759Z,47.03
2018-09-24T17:27:21.695Z,47.59
2018-09-24T17:29:56.725Z,46.66
2018-09-24T17:32:31.778Z,47.10
2018-09-24T17:35:06.888Z,47.12
2018-09-24T17:37:41.901Z,49.76
2018-09-24T17:40:17.006Z,50.93
2018-09-24T17:42:51.824Z,52.03
2018-09-24T17:45:26.912Z,53.07
2018-09-24T17:48:01.859Z,54.80
2018-09-24T17:50:37.032Z,54.65
2018-09-24T17:53:12.185Z,55.04
2018-09-24T17:55:47.386Z,54.75
2018-09-24T17:58:22.282Z,55.30
2018-09-24T18:00:57.263Z,57.03
2018-09-24T18:03:32.335Z,56.92
2018-09-24T18:06:07.394Z,56.87
2018-09-24T18:08:43.266Z,56.98
2018-09-24T18:11:18.246Z,57.41
2018-09-24T18:13:53.216Z,57.12
2018-09-24T18:16:28.144Z,58.32
2018-09-24T18:19:03.144Z,57.29
2018-09-24T18:21:38.282Z,58.11
2018-09-24T18:24:13.428Z,58.24
2018-09-24T18:26:48.950Z,58.08
2018-09-24T18:29:24.023Z,58.64
2018-09-24T18:31:59.234Z,59.59
2018-09-24T18:34:34.182Z,60.36
2018-09-24T18:37:09.181Z,60.88
2018-09-24T18:39:44.434Z,61.67
2018-09-24T18:42:19.268Z,61.67
2018-09-24T18:44:54.392Z,61.65
2018-09-24T18:47:29.471Z,62.25
2018-09-24T18:50:04.573Z,61.98
2018-09-24T18:52:39.750Z,61.56
2018-09-24T18:55:14.692Z,61.36
2018-09-24T18:57:49.622Z,62.62
2018-09-24T19:00:25.110Z,63.05
2018-09-24T19:03:00.090Z,64.95
2018-09-24T19:05:35.042Z,66.54
2018-09-24T19:08:09.895Z,66.02
2018-09-24T19:10:44.887Z,66.52
2018-09-24T19:13:20.036Z,67.55
2018-09-24T19:15:54.881Z,68.89
2018-09-24T19:18:29.949Z,68.52
2018-09-24T19:21:05.333Z,67.82
2018-09-24T19:23:40.354Z,67.49
2018-09-24T19:26:15.191Z,67.14
2018-09-24T19:28:50.129Z,67.27
2018-09-24T19:31:25.676Z,67.05
2018-09-24T19:34:00.797Z,66.99
2018-09-24T19:36:35.796Z,66.52
2018-09-24T19:39:13.136Z,67.04
2018-09-24T19:41:48.753Z,67.24
2018-09-24T19:44:24.116Z,67.31
2018-09-24T19:46:59.033Z,67.43
2018-09-24T19:49:33.915Z,67.07
2018-09-24T19:52:09.103Z,66.71
2018-09-24T19:54:44.147Z,66.47
2018-09-24T19:57:19.388Z,66.42
2018-09-24T19:59:54.685Z,66.47
2018-09-24T20:02:30.143Z,66.85
2018-09-24T20:05:05.217Z,67.01
2018-09-24T20:07:40.291Z,67.09
2018-09-24T20:10:15.196Z,66.93
2018-09-24T20:12:50.115Z,67.00
2018-09-24T20:15:25.348Z,66.62
2018-09-24T20:18:00.991Z,65.55
2018-09-24T20:20:35.969Z,65.48
2018-09-24T20:23:11.069Z,65.81
2018-09-24T20:25:45.995Z,65.50
2018-09-24T20:28:20.855Z,65.52
2018-09-24T20:30:55.737Z,65.61
2018-09-24T20:33:30.809Z,65.75
2018-09-24T20:36:05.698Z,66.85
2018-09-24T20:38:40.520Z,66.86
2018-09-24T20:41:15.360Z,67.51
2018-09-24T20:43:50.487Z,67.29
2018-09-24T20:46:25.489Z,67.39
2018-09-24T20:49:00.634Z,67.72
2018-09-24T20:51:35.575Z,67.45
2018-09-24T20:54:11.052Z,65.93
2018-09-24T20:56:45.922Z,65.19
2018-09-24T20:59:20.825Z,64.74
2018-09-24T21:01:55.690Z,63.97
2018-09-24T21:04:30.600Z,64.10
2018-09-24T21:07:05.641Z,64.58
2018-09-24T21:09:40.531Z,62.64
2018-09-24T21:12:15.452Z,63.72
2018-09-24T21:14:50.334Z,64.03
2018-09-24T21:17:25.372Z,63.39
2018-09-24T21:20:00.664Z,63.54
2018-09-24T21:22:35.585Z,64.30
2018-09-24T21:25:10.530Z,63.99
2018-09-24T21:27:45.568Z,64.53
2018-09-24T21:30:20.571Z,64.57
2018-09-24T21:32:55.404Z,64.93
2018-09-24T21:35:30.413Z,65.24
2018-09-24T21:38:05.268Z,66.00
2018-09-24T21:40:40.150Z,66.11
2018-09-24T21:43:14.996Z,66.29
2018-09-24T21:45:49.839Z,66.87
2018-09-24T21:48:25.032Z,67.06
2018-09-24T21:50:59.835Z,67.42
2018-09-24T21:53:34.777Z,66.99
2018-09-24T21:56:09.717Z,67.93
2018-09-24T21:58:44.656Z,67.59
2018-09-24T22:01:19.550Z,66.67
2018-09-24T22:03:54.546Z,67.04
2018-09-24T22:06:29.879Z,67.32
2018-09-24T22:09:04.654Z,67.51
2018-09-24T22:11:39.550Z,67.47
2018-09-24T22:14:14.416Z,67.41
2018-09-24T22:16:50.693Z,67.48
2018-09-24T22:19:25.690Z,67.21
2018-09-24T22:22:00.720Z,67.32
2018-09-24T22:24:35.528Z,67.65
2018-09-24T22:27:10.366Z,68.18
2018-09-24T22:29:45.196Z,68.13
2018-09-24T22:32:20.136Z,68.72
2018-09-24T22:34:54.931Z,68.27
2018-09-24T22:37:29.884Z,68.66
2018-09-24T22:40:04.695Z,68.80
2018-09-24T22:42:40.012Z,69.21
2018-09-24T22:45:14.897Z,69.69
2018-09-24T22:47:49.650Z,69.93
2018-09-24T22:50:24.629Z,70.02
2018-09-24T22:52:59.626Z,69.97
2018-09-24T22:55:34.409Z,69.66
2018-09-24T22:58:09.240Z,70.14
2018-09-24T23:00:44.051Z,69.37
2018-09-24T23:03:19.014Z,69.41
2018-09-24T23:05:53.999Z,69.26
2018-09-24T23:08:28.994Z,69.39
2018-09-24T23:11:04.053Z,69.20
2018-09-24T23:13:39.062Z,69.39
2018-09-24T23:16:14.086Z,69.34
2018-09-24T23:18:49.130Z,69.16
2018-09-24T23:21:23.922Z,69.17
2018-09-24T23:23:58.919Z,69.58
2018-09-24T23:26:33.996Z,69.40
2018-09-24T23:29:08.866Z,69.99
2018-09-24T23:31:43.713Z,70.31
2018-09-24T23:34:18.524Z,71.98
2018-09-24T23:36:53.298Z,72.88
2018-09-24T23:39:28.194Z,73.08
2018-09-24T23:42:03.239Z,73.68
2018-09-24T23:44:38.110Z,73.61
2018-09-24T23:47:13.522Z,74.20
2018-09-24T23:49:48.368Z,74.30
2018-09-24T23:52:23.278Z,74.58
2018-09-24T23:54:58.254Z,75.76
2018-09-24T23:57:33.318Z,75.74
